sensor_id;sensor_type;location;lat;lon;timestamp;pressure;altitude;pressure_sealevel;temperature;humidity
4570;BME280;2297;51.442;6.996;2023-05-10T00:02:07;99515.88;;;14.71;66.36
4570;BME280;2297;51.442;6.996;2023-05-10T00:04:33;99515.31;;;14.82;66.52
4570;BME280;2297;51.442;6.996;2023-05-10T00:07:07;99512.50;;;15.20;65.21
4570;BME280;2297;51.442;6.996;2023-05-10T00:09:35;99511.00;;;14.61;66.46
4570;BME280;2297;51.442;6.996;2023-05-10T00:12:02;99516.72;;;15.06;65.24
4570;BME280;2297;51.442;6.996;2023-05-10T00:14:28;99511.88;;;14.97;65.57
4570;BME280;2297;51.442;6.996;2023-05-10T00:16:55;99512.31;;;15.05;65.11
4570;BME280;2297;51.442;6.996;2023-05-10T00:19:22;99512.81;;;15.13;64.74
4570;BME280;2297;51.442;6.996;2023-05-10T00:21:48;99510.84;;;14.64;65.80
4570;BME280;2297;51.442;6.996;2023-05-10T00:24:16;99509.53;;;14.73;65.73
4570;BME280;2297;51.442;6.996;2023-05-10T00:26:43;99505.31;;;14.87;65.51
4570;BME280;2297;51.442;6.996;2023-05-10T00:29:09;99513.44;;;15.01;65.24
4570;BME280;2297;51.442;6.996;2023-05-10T00:31:36;99515.78;;;14.90;65.57
4570;BME280;2297;51.442;6.996;2023-05-10T00:34:03;99502.88;;;14.82;65.56
4570;BME280;2297;51.442;6.996;2023-05-10T00:36:29;99505.13;;;15.07;64.96
4570;BME280;2297;51.442;6.996;2023-05-10T00:38:56;99498.41;;;15.18;64.96
4570;BME280;2297;51.442;6.996;2023-05-10T00:41:24;99507.66;;;14.93;65.87
4570;BME280;2297;51.442;6.996;2023-05-10T00:43:51;99511.38;;;14.89;66.20
4570;BME280;2297;51.442;6.996;2023-05-10T00:46:18;99509.56;;;14.00;68.88
4570;BME280;2297;51.442;6.996;2023-05-10T00:48:44;99510.94;;;14.26;67.96
4570;BME280;2297;51.442;6.996;2023-05-10T00:51:11;99506.72;;;14.59;66.75
4570;BME280;2297;51.442;6.996;2023-05-10T00:53:38;99509.06;;;14.83;65.90
4570;BME280;2297;51.442;6.996;2023-05-10T00:56:04;99513.13;;;14.90;65.35
4570;BME280;2297;51.442;6.996;2023-05-10T00:58:32;99519.66;;;14.47;66.52
4570;BME280;2297;51.442;6.996;2023-05-10T01:01:00;99519.53;;;14.51;66.14
4570;BME280;2297;51.442;6.996;2023-05-10T01:03:27;99515.00;;;14.70;65.52
4570;BME280;2297;51.442;6.996;2023-05-10T01:05:54;99516.41;;;14.77;64.88
4570;BME280;2297;51.442;6.996;2023-05-10T01:08:21;99520.31;;;14.70;64.13
4570;BME280;2297;51.442;6.996;2023-05-10T01:10:48;99518.56;;;14.34;65.65
4570;BME280;2297;51.442;6.996;2023-05-10T01:13:22;99526.06;;;14.43;65.21
4570;BME280;2297;51.442;6.996;2023-05-10T01:15:53;99530.25;;;13.92;66.03
4570;BME280;2297;51.442;6.996;2023-05-10T01:18:21;99529.16;;;14.34;64.96
4570;BME280;2297;51.442;6.996;2023-05-10T01:20:55;99524.84;;;14.51;64.62
4570;BME280;2297;51.442;6.996;2023-05-10T01:23:42;99532.00;;;14.49;64.52
4570;BME280;2297;51.442;6.996;2023-05-10T01:26:31;99529.03;;;14.37;64.79
4570;BME280;2297;51.442;6.996;2023-05-10T01:29:19;99528.28;;;14.70;63.94
4570;BME280;2297;51.442;6.996;2023-05-10T01:32:17;99529.84;;;14.92;63.77
4570;BME280;2297;51.442;6.996;2023-05-10T01:34:54;99524.84;;;14.86;63.26
4570;BME280;2297;51.442;6.996;2023-05-10T01:37:30;99531.97;;;15.03;63.13
4570;BME280;2297;51.442;6.996;2023-05-10T01:40:01;99535.19;;;14.92;62.78
4570;BME280;2297;51.442;6.996;2023-05-10T01:42:33;99537.50;;;14.98;62.49
4570;BME280;2297;51.442;6.996;2023-05-10T01:45:11;99533.59;;;14.70;63.41
4570;BME280;2297;51.442;6.996;2023-05-10T01:47:43;99538.38;;;14.08;64.71
4570;BME280;2297;51.442;6.996;2023-05-10T01:50:17;99538.69;;;14.21;64.67
4570;BME280;2297;51.442;6.996;2023-05-10T01:52:49;99538.66;;;14.40;64.19
4570;BME280;2297;51.442;6.996;2023-05-10T01:55:20;99545.88;;;14.19;65.14
4570;BME280;2297;51.442;6.996;2023-05-10T01:57:52;99544.25;;;14.34;64.42
4570;BME280;2297;51.442;6.996;2023-05-10T02:00:21;99541.09;;;14.06;64.97
4570;BME280;2297;51.442;6.996;2023-05-10T02:02:51;99545.00;;;14.55;63.89
4570;BME280;2297;51.442;6.996;2023-05-10T02:05:19;99539.44;;;14.59;63.69
4570;BME280;2297;51.442;6.996;2023-05-10T02:07:48;99540.78;;;14.51;63.93
4570;BME280;2297;51.442;6.996;2023-05-10T02:10:15;99541.88;;;14.64;63.41
4570;BME280;2297;51.442;6.996;2023-05-10T02:12:44;99543.13;;;14.57;63.71
4570;BME280;2297;51.442;6.996;2023-05-10T02:15:15;99552.97;;;14.55;63.98
4570;BME280;2297;51.442;6.996;2023-05-10T02:17:43;99553.63;;;14.77;63.52
4570;BME280;2297;51.442;6.996;2023-05-10T02:20:14;99553.63;;;14.77;63.44
4570;BME280;2297;51.442;6.996;2023-05-10T02:22:42;99558.53;;;14.31;64.92
4570;BME280;2297;51.442;6.996;2023-05-10T02:25:13;99559.84;;;14.59;64.26
4570;BME280;2297;51.442;6.996;2023-05-10T02:27:41;99563.34;;;14.59;64.10
4570;BME280;2297;51.442;6.996;2023-05-10T02:30:10;99563.41;;;14.40;64.60
4570;BME280;2297;51.442;6.996;2023-05-10T02:32:37;99560.13;;;14.35;64.63
4570;BME280;2297;51.442;6.996;2023-05-10T02:35:06;99555.44;;;14.40;64.19
4570;BME280;2297;51.442;6.996;2023-05-10T02:37:36;99557.19;;;14.59;62.87
4570;BME280;2297;51.442;6.996;2023-05-10T02:40:05;99556.56;;;14.71;62.57
4570;BME280;2297;51.442;6.996;2023-05-10T02:42:35;99550.16;;;14.75;62.67
4570;BME280;2297;51.442;6.996;2023-05-10T02:45:04;99550.03;;;14.78;62.20
4570;BME280;2297;51.442;6.996;2023-05-10T02:47:31;99541.09;;;14.79;61.95
4570;BME280;2297;51.442;6.996;2023-05-10T02:49:58;99547.84;;;14.87;61.83
4570;BME280;2297;51.442;6.996;2023-05-10T02:52:29;99546.81;;;14.89;62.25
4570;BME280;2297;51.442;6.996;2023-05-10T02:55:01;99552.50;;;14.99;61.93
4570;BME280;2297;51.442;6.996;2023-05-10T02:57:32;99554.06;;;15.03;62.07
4570;BME280;2297;51.442;6.996;2023-05-10T02:59:59;99549.03;;;15.16;61.83
4570;BME280;2297;51.442;6.996;2023-05-10T03:02:27;99556.91;;;15.18;61.89
4570;BME280;2297;51.442;6.996;2023-05-10T03:04:55;99553.31;;;15.19;61.93
4570;BME280;2297;51.442;6.996;2023-05-10T03:07:22;99555.59;;;15.26;61.67
4570;BME280;2297;51.442;6.996;2023-05-10T03:09:49;99558.34;;;15.25;61.51
4570;BME280;2297;51.442;6.996;2023-05-10T03:12:23;99555.06;;;15.20;61.41
4570;BME280;2297;51.442;6.996;2023-05-10T03:14:57;99558.94;;;15.30;60.92
4570;BME280;2297;51.442;6.996;2023-05-10T03:17:30;99567.34;;;15.22;61.57
4570;BME280;2297;51.442;6.996;2023-05-10T03:19:59;99572.25;;;15.30;61.17
4570;BME280;2297;51.442;6.996;2023-05-10T03:22:32;99570.00;;;15.22;61.25
4570;BME280;2297;51.442;6.996;2023-05-10T03:25:04;99569.81;;;15.25;60.76
4570;BME280;2297;51.442;6.996;2023-05-10T03:27:34;99565.91;;;14.97;61.93
4570;BME280;2297;51.442;6.996;2023-05-10T03:30:02;99570.19;;;15.00;61.71
4570;BME280;2297;51.442;6.996;2023-05-10T03:32:29;99568.34;;;15.02;61.97
4570;BME280;2297;51.442;6.996;2023-05-10T03:34:57;99566.13;;;15.10;61.46
4570;BME280;2297;51.442;6.996;2023-05-10T03:37:23;99571.59;;;15.07;61.63
4570;BME280;2297;51.442;6.996;2023-05-10T03:39:50;99566.94;;;15.12;61.91
4570;BME280;2297;51.442;6.996;2023-05-10T03:42:16;99571.75;;;15.04;61.90
4570;BME280;2297;51.442;6.996;2023-05-10T03:44:45;99580.34;;;15.09;61.88
4570;BME280;2297;51.442;6.996;2023-05-10T03:47:11;99579.09;;;14.99;61.74
4570;BME280;2297;51.442;6.996;2023-05-10T03:49:38;99593.91;;;15.05;61.84
4570;BME280;2297;51.442;6.996;2023-05-10T03:52:04;99580.63;;;15.05;62.27
4570;BME280;2297;51.442;6.996;2023-05-10T03:54:31;99592.41;;;14.99;62.44
4570;BME280;2297;51.442;6.996;2023-05-10T03:56:58;99595.69;;;14.87;62.24
4570;BME280;2297;51.442;6.996;2023-05-10T03:59:26;99586.78;;;14.88;62.64
4570;BME280;2297;51.442;6.996;2023-05-10T04:01:54;99591.13;;;14.89;62.65
4570;BME280;2297;51.442;6.996;2023-05-10T04:04:20;99579.50;;;15.09;62.28
4570;BME280;2297;51.442;6.996;2023-05-10T04:06:48;99588.09;;;14.96;62.51
4570;BME280;2297;51.442;6.996;2023-05-10T04:09:15;99583.66;;;14.97;62.47
4570;BME280;2297;51.442;6.996;2023-05-10T04:11:42;99589.53;;;14.86;63.04
4570;BME280;2297;51.442;6.996;2023-05-10T04:14:09;99588.34;;;14.74;63.15
4570;BME280;2297;51.442;6.996;2023-05-10T04:16:35;99594.97;;;15.01;62.53
4570;BME280;2297;51.442;6.996;2023-05-10T04:19:03;99592.72;;;14.93;62.58
4570;BME280;2297;51.442;6.996;2023-05-10T04:21:30;99598.56;;;14.82;63.16
4570;BME280;2297;51.442;6.996;2023-05-10T04:23:56;99593.13;;;14.66;63.36
4570;BME280;2297;51.442;6.996;2023-05-10T04:26:23;99596.44;;;14.71;63.50
4570;BME280;2297;51.442;6.996;2023-05-10T04:28:50;99593.56;;;14.93;63.07
4570;BME280;2297;51.442;6.996;2023-05-10T04:31:16;99594.25;;;14.79;63.61
4570;BME280;2297;51.442;6.996;2023-05-10T04:33:43;99598.72;;;14.79;63.27
4570;BME280;2297;51.442;6.996;2023-05-10T04:36:11;99601.38;;;14.79;63.52
4570;BME280;2297;51.442;6.996;2023-05-10T04:38:38;99595.38;;;14.93;63.20
4570;BME280;2297;51.442;6.996;2023-05-10T04:41:05;99603.19;;;14.78;63.95
4570;BME280;2297;51.442;6.996;2023-05-10T04:43:32;99609.75;;;14.89;63.39
4570;BME280;2297;51.442;6.996;2023-05-10T04:45:59;99611.63;;;14.69;64.01
4570;BME280;2297;51.442;6.996;2023-05-10T04:48:26;99598.97;;;14.74;63.88
4570;BME280;2297;51.442;6.996;2023-05-10T04:50:53;99603.53;;;14.15;66.01
4570;BME280;2297;51.442;6.996;2023-05-10T04:53:21;99598.78;;;14.41;65.06
4570;BME280;2297;51.442;6.996;2023-05-10T04:55:47;99606.28;;;14.33;65.70
4570;BME280;2297;51.442;6.996;2023-05-10T04:58:14;99617.09;;;13.90;67.22
4570;BME280;2297;51.442;6.996;2023-05-10T05:00:41;99606.41;;;14.49;65.25
4570;BME280;2297;51.442;6.996;2023-05-10T05:03:08;99613.19;;;14.73;64.60
4570;BME280;2297;51.442;6.996;2023-05-10T05:05:34;99613.66;;;14.82;64.46
4570;BME280;2297;51.442;6.996;2023-05-10T05:08:01;99602.72;;;14.88;63.91
4570;BME280;2297;51.442;6.996;2023-05-10T05:10:29;99609.41;;;14.60;64.72
4570;BME280;2297;51.442;6.996;2023-05-10T05:12:56;99614.56;;;14.63;64.79
4570;BME280;2297;51.442;6.996;2023-05-10T05:15:22;99615.41;;;14.63;64.48
4570;BME280;2297;51.442;6.996;2023-05-10T05:17:49;99624.66;;;14.37;65.62
4570;BME280;2297;51.442;6.996;2023-05-10T05:20:16;99626.59;;;14.70;64.35
4570;BME280;2297;51.442;6.996;2023-05-10T05:22:44;99631.63;;;14.76;64.35
4570;BME280;2297;51.442;6.996;2023-05-10T05:25:11;99626.00;;;14.83;64.09
4570;BME280;2297;51.442;6.996;2023-05-10T05:27:39;99620.06;;;14.95;63.85
4570;BME280;2297;51.442;6.996;2023-05-10T05:30:08;99624.38;;;14.97;63.71
4570;BME280;2297;51.442;6.996;2023-05-10T05:32:34;99631.19;;;15.03;63.60
4570;BME280;2297;51.442;6.996;2023-05-10T05:35:01;99631.53;;;15.15;62.96
4570;BME280;2297;51.442;6.996;2023-05-10T05:37:28;99636.66;;;14.83;64.10
4570;BME280;2297;51.442;6.996;2023-05-10T05:39:54;99641.19;;;14.98;63.57
4570;BME280;2297;51.442;6.996;2023-05-10T05:42:21;99639.78;;;14.91;63.56
4570;BME280;2297;51.442;6.996;2023-05-10T05:44:49;99642.38;;;15.10;62.96
4570;BME280;2297;51.442;6.996;2023-05-10T05:47:15;99639.03;;;15.06;63.06
4570;BME280;2297;51.442;6.996;2023-05-10T05:49:42;99645.19;;;15.07;63.07
4570;BME280;2297;51.442;6.996;2023-05-10T05:52:11;99647.66;;;15.11;63.17
4570;BME280;2297;51.442;6.996;2023-05-10T05:54:38;99650.72;;;14.85;64.13
4570;BME280;2297;51.442;6.996;2023-05-10T05:57:04;99650.94;;;15.17;63.21
4570;BME280;2297;51.442;6.996;2023-05-10T06:02:54;99663.34;;;14.79;64.02
4570;BME280;2297;51.442;6.996;2023-05-10T06:05:21;99661.09;;;14.53;64.74
4570;BME280;2297;51.442;6.996;2023-05-10T06:07:47;99665.09;;;14.80;63.75
4570;BME280;2297;51.442;6.996;2023-05-10T06:10:14;99662.34;;;14.82;63.46
4570;BME280;2297;51.442;6.996;2023-05-10T06:12:40;99662.09;;;14.50;63.84
4570;BME280;2297;51.442;6.996;2023-05-10T06:15:08;99673.75;;;14.67;64.22
4570;BME280;2297;51.442;6.996;2023-05-10T06:17:35;99670.88;;;14.52;64.76
4570;BME280;2297;51.442;6.996;2023-05-10T06:20:03;99676.53;;;14.83;64.04
4570;BME280;2297;51.442;6.996;2023-05-10T06:22:31;99678.69;;;15.11;63.06
4570;BME280;2297;51.442;6.996;2023-05-10T06:24:57;99684.28;;;14.68;64.05
4570;BME280;2297;51.442;6.996;2023-05-10T06:27:24;99685.00;;;15.08;63.34
4570;BME280;2297;51.442;6.996;2023-05-10T06:29:51;99682.31;;;14.91;63.56
4570;BME280;2297;51.442;6.996;2023-05-10T06:32:17;99672.97;;;15.01;63.22
4570;BME280;2297;51.442;6.996;2023-05-10T06:34:44;99677.84;;;14.91;63.19
4570;BME280;2297;51.442;6.996;2023-05-10T06:37:12;99680.69;;;15.25;62.12
4570;BME280;2297;51.442;6.996;2023-05-10T06:39:39;99688.03;;;15.01;63.33
4570;BME280;2297;51.442;6.996;2023-05-10T06:42:06;99693.56;;;15.15;62.57
4570;BME280;2297;51.442;6.996;2023-05-10T06:44:32;99695.06;;;15.21;62.83
4570;BME280;2297;51.442;6.996;2023-05-10T06:46:59;99696.25;;;15.50;62.13
4570;BME280;2297;51.442;6.996;2023-05-10T06:49:26;99697.34;;;15.63;61.61
4570;BME280;2297;51.442;6.996;2023-05-10T06:51:52;99697.81;;;15.00;62.85
4570;BME280;2297;51.442;6.996;2023-05-10T06:54:20;99694.28;;;15.19;62.69
4570;BME280;2297;51.442;6.996;2023-05-10T06:56:48;99701.31;;;14.64;64.00
4570;BME280;2297;51.442;6.996;2023-05-10T06:59:14;99703.63;;;14.72;64.42
4570;BME280;2297;51.442;6.996;2023-05-10T07:02:18;99704.78;;;15.39;62.35
4570;BME280;2297;51.442;6.996;2023-05-10T07:04:46;99702.41;;;15.68;61.54
4570;BME280;2297;51.442;6.996;2023-05-10T07:07:13;99705.13;;;15.84;61.33
4570;BME280;2297;51.442;6.996;2023-05-10T07:09:41;99704.31;;;15.66;60.97
4570;BME280;2297;51.442;6.996;2023-05-10T07:12:08;99698.66;;;15.90;60.12
4570;BME280;2297;51.442;6.996;2023-05-10T07:14:35;99703.34;;;16.02;59.78
4570;BME280;2297;51.442;6.996;2023-05-10T07:17:01;99702.69;;;15.97;59.99
4570;BME280;2297;51.442;6.996;2023-05-10T07:19:28;99708.19;;;16.11;59.71
4570;BME280;2297;51.442;6.996;2023-05-10T07:25:06;99706.09;;;16.01;58.83
4570;BME280;2297;51.442;6.996;2023-05-10T07:27:33;99706.28;;;15.08;62.10
4570;BME280;2297;51.442;6.996;2023-05-10T07:30:00;99707.81;;;15.67;60.62
4570;BME280;2297;51.442;6.996;2023-05-10T07:32:26;99705.00;;;15.52;60.57
4570;BME280;2297;51.442;6.996;2023-05-10T07:34:53;99709.66;;;15.49;60.92
4570;BME280;2297;51.442;6.996;2023-05-10T07:37:20;99707.56;;;15.89;60.23
4570;BME280;2297;51.442;6.996;2023-05-10T07:40:12;99706.00;;;15.85;60.31
4570;BME280;2297;51.442;6.996;2023-05-10T07:42:39;99703.34;;;16.02;59.59
4570;BME280;2297;51.442;6.996;2023-05-10T07:45:06;99712.19;;;15.85;59.65
4570;BME280;2297;51.442;6.996;2023-05-10T07:47:33;99714.69;;;16.06;59.30
4570;BME280;2297;51.442;6.996;2023-05-10T07:50:00;99719.53;;;16.15;59.31
4570;BME280;2297;51.442;6.996;2023-05-10T07:52:27;99725.41;;;16.22;58.81
4570;BME280;2297;51.442;6.996;2023-05-10T07:54:53;99719.00;;;16.08;59.04
4570;BME280;2297;51.442;6.996;2023-05-10T07:57:23;99721.50;;;15.94;59.41
4570;BME280;2297;51.442;6.996;2023-05-10T07:59:49;99723.66;;;16.21;58.70
4570;BME280;2297;51.442;6.996;2023-05-10T08:02:16;99721.59;;;16.10;59.04
4570;BME280;2297;51.442;6.996;2023-05-10T08:04:43;99731.22;;;16.12;59.25
4570;BME280;2297;51.442;6.996;2023-05-10T08:07:10;99736.44;;;15.79;59.98
4570;BME280;2297;51.442;6.996;2023-05-10T08:09:36;99728.41;;;15.45;61.54
4570;BME280;2297;51.442;6.996;2023-05-10T08:12:03;99735.66;;;15.42;61.51
4570;BME280;2297;51.442;6.996;2023-05-10T08:14:32;99741.44;;;14.96;63.60
4570;BME280;2297;51.442;6.996;2023-05-10T08:16:58;99745.75;;;15.35;62.10
4570;BME280;2297;51.442;6.996;2023-05-10T08:19:25;99738.75;;;15.34;62.21
4570;BME280;2297;51.442;6.996;2023-05-10T08:21:52;99746.41;;;15.04;63.07
4570;BME280;2297;51.442;6.996;2023-05-10T08:24:18;99745.84;;;15.51;61.95
4570;BME280;2297;51.442;6.996;2023-05-10T08:26:45;99756.16;;;15.03;63.20
4570;BME280;2297;51.442;6.996;2023-05-10T08:29:12;99756.13;;;15.76;61.43
4570;BME280;2297;51.442;6.996;2023-05-10T08:31:41;99751.25;;;15.32;61.98
4570;BME280;2297;51.442;6.996;2023-05-10T08:34:08;99755.66;;;15.51;61.54
4570;BME280;2297;51.442;6.996;2023-05-10T08:36:34;99766.22;;;15.87;60.49
4570;BME280;2297;51.442;6.996;2023-05-10T08:39:01;99766.16;;;15.89;59.92
4570;BME280;2297;51.442;6.996;2023-05-10T08:41:28;99765.13;;;15.91;59.64
4570;BME280;2297;51.442;6.996;2023-05-10T08:43:56;99776.63;;;15.92;59.14
4570;BME280;2297;51.442;6.996;2023-05-10T08:46:23;99769.84;;;16.04;59.24
4570;BME280;2297;51.442;6.996;2023-05-10T08:49:11;99769.84;;;16.04;59.01
4570;BME280;2297;51.442;6.996;2023-05-10T08:51:40;99774.22;;;16.05;59.13
4570;BME280;2297;51.442;6.996;2023-05-10T08:54:08;99778.34;;;16.10;58.51
4570;BME280;2297;51.442;6.996;2023-05-10T08:56:35;99775.38;;;16.17;58.58
4570;BME280;2297;51.442;6.996;2023-05-10T08:59:02;99785.00;;;15.84;59.39
4570;BME280;2297;51.442;6.996;2023-05-10T09:01:30;99780.41;;;16.05;59.23
4570;BME280;2297;51.442;6.996;2023-05-10T09:03:58;99784.31;;;16.16;58.87
4570;BME280;2297;51.442;6.996;2023-05-10T09:06:26;99784.25;;;16.00;58.84
4570;BME280;2297;51.442;6.996;2023-05-10T09:08:54;99781.28;;;16.06;58.62
4570;BME280;2297;51.442;6.996;2023-05-10T09:11:21;99779.13;;;15.77;59.26
4570;BME280;2297;51.442;6.996;2023-05-10T09:13:48;99782.72;;;16.29;58.48
4570;BME280;2297;51.442;6.996;2023-05-10T09:16:17;99787.69;;;16.53;57.68
4570;BME280;2297;51.442;6.996;2023-05-10T09:18:43;99789.88;;;16.28;57.88
4570;BME280;2297;51.442;6.996;2023-05-10T09:21:10;99792.75;;;16.24;57.62
4570;BME280;2297;51.442;6.996;2023-05-10T09:23:42;99785.38;;;16.29;58.20
4570;BME280;2297;51.442;6.996;2023-05-10T09:26:09;99791.78;;;16.42;57.74
4570;BME280;2297;51.442;6.996;2023-05-10T09:28:51;99792.97;;;16.37;58.17
4570;BME280;2297;51.442;6.996;2023-05-10T09:31:18;99798.25;;;15.86;59.04
4570;BME280;2297;51.442;6.996;2023-05-10T09:33:45;99799.94;;;16.06;58.84
4570;BME280;2297;51.442;6.996;2023-05-10T09:36:13;99807.63;;;16.28;57.58
4570;BME280;2297;51.442;6.996;2023-05-10T09:38:48;99808.75;;;15.89;58.16
4570;BME280;2297;51.442;6.996;2023-05-10T09:41:18;99811.50;;;15.87;57.83
4570;BME280;2297;51.442;6.996;2023-05-10T09:43:45;99818.94;;;15.44;57.61
4570;BME280;2297;51.442;6.996;2023-05-10T09:46:12;99829.69;;;15.23;59.00
4570;BME280;2297;51.442;6.996;2023-05-10T09:48:42;99816.22;;;15.45;57.50
4570;BME280;2297;51.442;6.996;2023-05-10T09:51:09;99817.97;;;15.82;56.88
4570;BME280;2297;51.442;6.996;2023-05-10T09:53:35;99823.97;;;16.04;56.07
4570;BME280;2297;51.442;6.996;2023-05-10T09:56:03;99823.44;;;15.78;56.20
4570;BME280;2297;51.442;6.996;2023-05-10T09:58:30;99825.69;;;16.05;55.30
4570;BME280;2297;51.442;6.996;2023-05-10T10:00:57;99818.88;;;15.63;57.39
4570;BME280;2297;51.442;6.996;2023-05-10T10:03:24;99824.84;;;15.68;56.91
4570;BME280;2297;51.442;6.996;2023-05-10T10:05:50;99820.53;;;16.02;56.21
4570;BME280;2297;51.442;6.996;2023-05-10T10:08:18;99814.66;;;16.46;54.76
4570;BME280;2297;51.442;6.996;2023-05-10T10:10:46;99814.50;;;16.50;54.70
4570;BME280;2297;51.442;6.996;2023-05-10T10:13:14;99810.72;;;16.54;54.12
4570;BME280;2297;51.442;6.996;2023-05-10T10:15:42;99819.78;;;16.67;53.20
4570;BME280;2297;51.442;6.996;2023-05-10T10:18:12;99817.28;;;16.64;53.04
4570;BME280;2297;51.442;6.996;2023-05-10T10:20:39;99820.63;;;17.01;52.00
4570;BME280;2297;51.442;6.996;2023-05-10T10:23:07;99816.38;;;16.47;52.35
4570;BME280;2297;51.442;6.996;2023-05-10T10:25:34;99826.81;;;17.02;51.70
4570;BME280;2297;51.442;6.996;2023-05-10T10:28:10;99826.88;;;16.51;52.05
4570;BME280;2297;51.442;6.996;2023-05-10T10:30:46;99830.53;;;16.15;53.38
4570;BME280;2297;51.442;6.996;2023-05-10T10:33:29;99829.63;;;16.49;52.48
4570;BME280;2297;51.442;6.996;2023-05-10T10:36:00;99838.06;;;16.06;53.43
4570;BME280;2297;51.442;6.996;2023-05-10T10:38:36;99839.97;;;16.04;53.94
4570;BME280;2297;51.442;6.996;2023-05-10T10:41:11;99845.22;;;15.87;53.87
4570;BME280;2297;51.442;6.996;2023-05-10T10:44:23;99844.50;;;15.66;54.94
4570;BME280;2297;51.442;6.996;2023-05-10T10:47:06;99858.41;;;15.53;55.50
4570;BME280;2297;51.442;6.996;2023-05-10T10:49:43;99851.44;;;15.51;55.86
4570;BME280;2297;51.442;6.996;2023-05-10T10:52:21;99848.84;;;15.86;55.13
4570;BME280;2297;51.442;6.996;2023-05-10T10:54:51;99851.22;;;16.09;54.11
4570;BME280;2297;51.442;6.996;2023-05-10T10:57:19;99855.75;;;15.90;54.31
4570;BME280;2297;51.442;6.996;2023-05-10T10:59:47;99847.16;;;16.02;53.79
4570;BME280;2297;51.442;6.996;2023-05-10T11:05:36;99857.22;;;15.78;54.36
4570;BME280;2297;51.442;6.996;2023-05-10T11:08:08;99854.56;;;15.95;53.58
4570;BME280;2297;51.442;6.996;2023-05-10T11:10:36;99857.50;;;16.08;53.91
4570;BME280;2297;51.442;6.996;2023-05-10T11:13:03;99858.69;;;15.84;54.39
4570;BME280;2297;51.442;6.996;2023-05-10T11:15:31;99862.66;;;16.11;54.19
4570;BME280;2297;51.442;6.996;2023-05-10T11:17:58;99859.97;;;16.29;53.53
4570;BME280;2297;51.442;6.996;2023-05-10T11:20:27;99865.50;;;15.72;54.83
4570;BME280;2297;51.442;6.996;2023-05-10T11:23:11;99867.78;;;15.79;55.08
4570;BME280;2297;51.442;6.996;2023-05-10T11:25:41;99865.78;;;16.20;54.48
4570;BME280;2297;51.442;6.996;2023-05-10T11:28:09;99857.94;;;16.34;54.00
4570;BME280;2297;51.442;6.996;2023-05-10T11:30:36;99869.56;;;16.16;54.05
4570;BME280;2297;51.442;6.996;2023-05-10T11:33:03;99873.16;;;16.15;54.20
4570;BME280;2297;51.442;6.996;2023-05-10T11:35:29;99876.56;;;16.52;53.71
4570;BME280;2297;51.442;6.996;2023-05-10T11:37:56;99879.72;;;16.25;54.33
4570;BME280;2297;51.442;6.996;2023-05-10T11:40:24;99874.22;;;15.93;55.21
4570;BME280;2297;51.442;6.996;2023-05-10T11:42:51;99883.84;;;15.78;56.34
4570;BME280;2297;51.442;6.996;2023-05-10T11:45:18;99885.94;;;15.52;56.31
4570;BME280;2297;51.442;6.996;2023-05-10T11:47:48;99885.47;;;15.80;55.85
4570;BME280;2297;51.442;6.996;2023-05-10T11:50:15;99882.41;;;16.07;55.32
4570;BME280;2297;51.442;6.996;2023-05-10T11:52:42;99880.28;;;16.83;53.51
4570;BME280;2297;51.442;6.996;2023-05-10T11:55:08;99879.22;;;15.45;56.60
4570;BME280;2297;51.442;6.996;2023-05-10T11:57:36;99881.28;;;15.94;55.55
4570;BME280;2297;51.442;6.996;2023-05-10T12:00:07;99871.81;;;16.74;53.52
4570;BME280;2297;51.442;6.996;2023-05-10T12:02:34;99888.06;;;17.03;52.60
4570;BME280;2297;51.442;6.996;2023-05-10T12:05:01;99881.09;;;16.67;53.28
4570;BME280;2297;51.442;6.996;2023-05-10T12:07:29;99886.03;;;17.08;51.59
4570;BME280;2297;51.442;6.996;2023-05-10T12:10:06;99877.31;;;17.05;51.65
4570;BME280;2297;51.442;6.996;2023-05-10T12:12:38;99878.44;;;16.67;52.29
4570;BME280;2297;51.442;6.996;2023-05-10T12:15:10;99880.84;;;16.89;52.19
4570;BME280;2297;51.442;6.996;2023-05-10T12:17:38;99887.03;;;16.72;51.07
4570;BME280;2297;51.442;6.996;2023-05-10T12:20:19;99893.69;;;15.76;54.04
4570;BME280;2297;51.442;6.996;2023-05-10T12:22:47;99892.19;;;16.24;52.61
4570;BME280;2297;51.442;6.996;2023-05-10T12:25:15;99891.78;;;16.15;52.24
4570;BME280;2297;51.442;6.996;2023-05-10T12:27:49;99888.34;;;16.30;52.52
4570;BME280;2297;51.442;6.996;2023-05-10T12:30:21;99898.56;;;16.04;53.32
4570;BME280;2297;51.442;6.996;2023-05-10T12:32:48;99888.56;;;16.08;53.56
4570;BME280;2297;51.442;6.996;2023-05-10T12:35:14;99890.03;;;16.66;51.58
4570;BME280;2297;51.442;6.996;2023-05-10T12:37:42;99887.97;;;16.71;50.67
4570;BME280;2297;51.442;6.996;2023-05-10T12:40:10;99886.69;;;16.96;50.06
4570;BME280;2297;51.442;6.996;2023-05-10T12:42:38;99879.75;;;17.41;49.21
4570;BME280;2297;51.442;6.996;2023-05-10T12:45:08;99883.56;;;16.88;49.86
4570;BME280;2297;51.442;6.996;2023-05-10T12:47:34;99882.34;;;17.43;48.53
4570;BME280;2297;51.442;6.996;2023-05-10T12:50:02;99884.25;;;17.57;47.83
4570;BME280;2297;51.442;6.996;2023-05-10T12:52:29;99896.53;;;17.43;47.53
4570;BME280;2297;51.442;6.996;2023-05-10T12:54:57;99894.16;;;17.71;46.48
4570;BME280;2297;51.442;6.996;2023-05-10T12:57:24;99893.81;;;18.07;46.06
4570;BME280;2297;51.442;6.996;2023-05-10T12:59:50;99890.06;;;18.26;45.28
4570;BME280;2297;51.442;6.996;2023-05-10T13:02:18;99891.97;;;17.77;45.94
4570;BME280;2297;51.442;6.996;2023-05-10T13:04:46;99895.50;;;17.62;46.28
4570;BME280;2297;51.442;6.996;2023-05-10T13:07:13;99890.63;;;17.70;46.39
4570;BME280;2297;51.442;6.996;2023-05-10T13:09:39;99889.41;;;17.44;45.83
4570;BME280;2297;51.442;6.996;2023-05-10T13:12:06;99891.88;;;17.63;46.04
4570;BME280;2297;51.442;6.996;2023-05-10T13:14:33;99892.41;;;17.54;46.06
4570;BME280;2297;51.442;6.996;2023-05-10T13:17:00;99888.56;;;17.75;45.70
4570;BME280;2297;51.442;6.996;2023-05-10T13:19:28;99895.53;;;18.08;45.12
4570;BME280;2297;51.442;6.996;2023-05-10T13:21:54;99893.34;;;18.45;44.35
4570;BME280;2297;51.442;6.996;2023-05-10T13:24:21;99894.97;;;18.03;44.82
4570;BME280;2297;51.442;6.996;2023-05-10T13:26:48;99893.59;;;17.64;46.42
4570;BME280;2297;51.442;6.996;2023-05-10T13:29:14;99889.72;;;18.16;45.45
4570;BME280;2297;51.442;6.996;2023-05-10T13:31:43;99898.03;;;18.11;44.35
4570;BME280;2297;51.442;6.996;2023-05-10T13:34:10;99892.25;;;18.50;44.35
4570;BME280;2297;51.442;6.996;2023-05-10T13:36:38;99889.56;;;18.93;43.28
4570;BME280;2297;51.442;6.996;2023-05-10T13:39:04;99891.88;;;18.85;42.64
4570;BME280;2297;51.442;6.996;2023-05-10T13:41:31;99897.22;;;18.85;42.54